Time;durP1;ratioP1;P1;durP2;ratioP2;P2;SDS_P1;SDS_P2;PMS_P1;PMS_P2;Temp;Humidity;BMP_temperature;BMP_pressure;BME280_temperature;BME280_humidity;BME280_pressure;Samples;Min_cycle;Max_cycle;Signal;HPM_P1;HPM_P2
2022/01/26 00:07:53;;;;;;;66.23;36.50;;;;;;;0.22;100.00;99528.63;5057910;28;20488;-69
2022/01/26 00:10:20;;;;;;;71.77;38.47;;;;;;;0.28;100.00;99529.81;5057654;28;20237;-69
2022/01/26 00:12:46;;;;;;;71.20;37.67;;;;;;;0.31;100.00;99523.50;5057919;28;20212;-69
2022/01/26 00:15:12;;;;;;;68.20;37.13;;;;;;;0.32;100.00;99528.63;5057692;28;20193;-69
2022/01/26 00:17:39;;;;;;;81.73;39.50;;;;;;;0.31;100.00;99533.16;5057924;28;20196;-70
2022/01/26 00:20:15;;;;;;;88.00;38.03;;;;;;;0.34;100.00;99536.34;5057769;28;20221;-70
2022/01/26 00:22:55;;;;;;;76.33;37.90;;;;;;;0.28;100.00;99531.59;5057555;28;20577;-70
2022/01/26 00:25:33;;;;;;;86.77;38.57;;;;;;;0.22;100.00;99539.09;5057533;28;20194;-70
2022/01/26 00:28:19;;;;;;;75.80;37.50;;;;;;;0.38;100.00;99535.16;5057722;28;20208;-70
2022/01/26 00:38:59;;;;;;;73.47;38.27;;;;;;;0.30;100.00;99534.91;5057357;28;20176;-69
2022/01/26 00:41:34;;;;;;;68.40;36.40;;;;;;;0.32;100.00;99527.81;5057454;28;20275;-70
2022/01/26 00:44:01;;;;;;;67.80;35.70;;;;;;;0.44;100.00;99537.28;5057469;28;20290;-70
2022/01/26 00:46:27;;;;;;;63.97;36.10;;;;;;;0.37;100.00;99538.75;5057352;28;20288;-69
2022/01/26 00:48:54;;;;;;;64.43;33.87;;;;;;;0.44;100.00;99536.47;5057100;28;20223;-69
2022/01/26 00:51:22;;;;;;;68.03;36.17;;;;;;;0.27;100.00;99543.00;5057171;28;20228;-70
2022/01/26 00:53:54;;;;;;;67.27;33.97;;;;;;;0.24;100.00;99535.41;5057194;28;20228;-69
2022/01/26 00:56:21;;;;;;;63.70;35.30;;;;;;;0.11;100.00;99534.69;5057201;28;20200;-69
2022/01/26 00:58:47;;;;;;;69.07;32.73;;;;;;;0.02;100.00;99540.63;5057175;28;20208;-69
2022/01/26 01:01:14;;;;;;;70.93;34.40;;;;;;;0.05;100.00;99549.06;5056714;28;20537;-70
2022/01/26 01:03:44;;;;;;;70.43;35.07;;;;;;;-0.03;100.00;99547.97;5057055;28;20216;-69
2022/01/26 01:06:14;;;;;;;59.80;32.20;;;;;;;0.08;100.00;99547.16;5056922;28;20189;-71
2022/01/26 01:08:42;;;;;;;53.33;28.27;;;;;;;-0.02;100.00;99558.31;5056643;28;20581;-69
2022/01/26 01:11:10;;;;;;;67.27;30.33;;;;;;;-0.13;100.00;99552.25;5056708;28;20302;-70
2022/01/26 01:13:39;;;;;;;61.63;31.47;;;;;;;-0.20;100.00;99549.25;5056896;28;20433;-70
2022/01/26 01:16:08;;;;;;;55.00;28.93;;;;;;;-0.16;100.00;99547.25;5056905;28;20193;-70
2022/01/26 01:18:43;;;;;;;62.77;29.43;;;;;;;-0.20;100.00;99546.66;5056768;28;20430;-69
2022/01/26 01:22:02;;;;;;;52.63;29.77;;;;;;;-0.19;100.00;99550.06;5056748;28;20226;-70
2022/01/26 01:27:45;;;;;;;50.70;29.50;;;;;;;-0.17;100.00;99541.16;5055978;28;20177;-70
2022/01/26 01:30:24;;;;;;;101.73;30.27;;;;;;;-0.24;100.00;99541.75;5056491;28;20224;-69
2022/01/26 01:32:54;;;;;;;56.00;29.60;;;;;;;-0.18;100.00;99549.16;5056468;28;20209;-69
2022/01/26 01:35:21;;;;;;;66.30;31.23;;;;;;;-0.20;100.00;99549.25;5056627;28;20189;-70
2022/01/26 01:37:48;;;;;;;54.50;30.70;;;;;;;-0.26;100.00;99547.09;5056231;28;20190;-70
2022/01/26 01:40:14;;;;;;;65.33;29.20;;;;;;;-0.17;100.00;99545.56;5056371;28;20450;-70
2022/01/26 01:42:41;;;;;;;59.73;29.70;;;;;;;-0.23;100.00;99548.63;5056429;28;20196;-70
2022/01/26 01:45:08;;;;;;;88.70;31.80;;;;;;;-0.28;100.00;99551.59;5056449;28;20204;-69
2022/01/26 01:47:35;;;;;;;68.00;31.50;;;;;;;-0.26;100.00;99549.69;5056437;28;20244;-70
2022/01/26 01:50:03;;;;;;;65.87;29.60;;;;;;;-0.22;100.00;99552.94;5056169;28;20209;-70
2022/01/26 01:52:29;;;;;;;64.77;28.83;;;;;;;-0.28;100.00;99550.75;5056403;28;20277;-69
2022/01/26 01:55:02;;;;;;;74.23;27.17;;;;;;;-0.37;100.00;99560.13;5056030;28;20499;-69
2022/01/26 01:57:29;;;;;;;72.97;28.63;;;;;;;-0.49;100.00;99555.81;5056313;28;20221;-69
2022/01/26 01:59:55;;;;;;;56.30;29.33;;;;;;;-0.42;100.00;99558.81;5055869;28;20421;-69
2022/01/26 02:02:22;;;;;;;65.33;27.43;;;;;;;-0.50;100.00;99561.13;5056187;28;20196;-69
2022/01/26 02:04:48;;;;;;;51.10;28.23;;;;;;;-0.38;100.00;99568.09;5056194;28;20441;-69
2022/01/26 02:07:15;;;;;;;68.03;27.47;;;;;;;-0.54;100.00;99565.78;5056199;28;20430;-69
2022/01/26 02:09:41;;;;;;;74.73;24.80;;;;;;;-0.72;100.00;99568.91;5055871;28;20478;-70
2022/01/26 02:12:18;;;;;;;43.47;23.07;;;;;;;-0.62;100.00;99562.88;5055773;28;20927;-70
2022/01/26 02:14:49;;;;;;;44.30;22.47;;;;;;;-0.67;100.00;99566.78;5055942;28;20192;-69
2022/01/26 02:17:28;;;;;;;49.73;22.83;;;;;;;-0.70;100.00;99562.63;5055877;28;20427;-70
2022/01/26 02:20:25;;;;;;;44.77;22.33;;;;;;;-0.68;100.00;99558.13;5055915;28;20530;-69
2022/01/26 02:56:22;;;;;;;45.87;21.23;;;;;;;-0.79;100.00;99552.00;5080133;28;20519;-70
2022/01/26 02:59:09;;;;;;;36.47;21.03;;;;;;;-0.78;100.00;99551.91;5093945;28;20511;-70
2022/01/26 03:01:48;;;;;;;36.33;20.37;;;;;;;-0.82;100.00;99550.47;5093638;28;20551;-69
2022/01/26 03:04:22;;;;;;;49.37;22.90;;;;;;;-0.99;100.00;99550.84;5093659;28;20511;-69
2022/01/26 03:06:55;;;;;;;75.83;23.37;;;;;;;-1.00;100.00;99549.19;5093673;28;20441;-69
2022/01/26 03:09:27;;;;;;;69.80;23.03;;;;;;;-0.92;100.00;99536.41;5093658;28;20449;-69
2022/01/26 03:11:54;;;;;;;38.97;21.20;;;;;;;-0.77;100.00;99545.72;5093369;28;20469;-69
2022/01/26 03:14:30;;;;;;;37.20;21.80;;;;;;;-0.80;100.00;99534.69;5093661;28;20189;-69
2022/01/26 03:17:01;;;;;;;37.13;21.13;;;;;;;-0.76;100.00;99536.94;5093334;28;20507;-70
2022/01/26 03:19:34;;;;;;;37.30;21.10;;;;;;;-0.69;100.00;99546.00;5093571;28;20453;-70
2022/01/26 03:28:05;;;;;;;38.47;20.30;;;;;;;-0.65;100.00;99544.00;5093439;28;20453;-70
2022/01/26 03:30:32;;;;;;;40.83;22.57;;;;;;;-0.73;100.00;99539.34;5093053;28;20724;-70
2022/01/26 03:33:11;;;;;;;38.27;21.03;;;;;;;-0.77;100.00;99545.72;5093231;28;20203;-70
2022/01/26 03:35:43;;;;;;;40.60;22.33;;;;;;;-0.69;100.00;99545.16;5093234;28;20432;-70
2022/01/26 03:38:17;;;;;;;36.03;20.80;;;;;;;-0.68;100.00;99554.66;5092965;28;20189;-69
2022/01/26 03:40:44;;;;;;;37.33;20.90;;;;;;;-0.70;100.00;99552.19;5092787;28;20453;-69
2022/01/26 03:43:10;;;;;;;44.53;22.77;;;;;;;-0.77;100.00;99550.94;5093131;28;20719;-69
2022/01/26 03:45:37;;;;;;;34.43;21.80;;;;;;;-0.72;100.00;99554.06;5093019;28;20424;-69
2022/01/26 03:48:03;;;;;;;46.60;22.90;;;;;;;-0.66;100.00;99563.22;5093009;28;20428;-69
2022/01/26 03:50:30;;;;;;;41.23;21.93;;;;;;;-0.65;100.00;99557.91;5092819;28;20456;-69
2022/01/26 03:52:56;;;;;;;35.77;21.73;;;;;;;-0.55;100.00;99558.03;5092496;28;20487;-70
2022/01/26 03:55:23;;;;;;;39.30;21.87;;;;;;;-0.33;100.00;99556.34;5092740;28;20432;-69
2022/01/26 03:57:49;;;;;;;45.20;23.43;;;;;;;-0.48;100.00;99554.03;5092609;28;20432;-70
2022/01/26 04:00:17;;;;;;;45.63;23.43;;;;;;;-0.62;100.00;99559.47;5092291;28;20448;-70
2022/01/26 04:02:43;;;;;;;43.20;23.10;;;;;;;-0.63;100.00;99555.19;5091823;28;20428;-70
2022/01/26 04:05:11;;;;;;;39.37;23.13;;;;;;;-0.68;100.00;99562.50;5078609;28;20200;-70
2022/01/26 04:07:39;;;;;;;42.97;22.47;;;;;;;-0.63;100.00;99558.59;5079078;28;20429;-69
2022/01/26 04:10:16;;;;;;;43.97;22.53;;;;;;;-0.59;100.00;99553.97;5078645;28;20700;-70
2022/01/26 04:12:43;;;;;;;43.23;23.60;;;;;;;-0.65;100.00;99557.91;5078698;28;20552;-70
2022/01/26 04:15:18;;;;;;;42.63;23.27;;;;;;;-0.51;100.00;99552.50;5079006;28;20421;-70
2022/01/26 04:17:45;;;;;;;48.90;23.53;;;;;;;-0.60;100.00;99558.41;5078473;28;20845;-69
2022/01/26 04:20:12;;;;;;;42.37;23.57;;;;;;;-0.62;100.00;99557.66;5078643;28;20460;-70
2022/01/26 04:22:50;;;;;;;47.37;24.73;;;;;;;-0.57;100.00;99557.34;5078375;28;20433;-69
2022/01/26 04:25:20;;;;;;;41.53;23.33;;;;;;;-0.53;100.00;99551.75;5078492;28;20531;-70
2022/01/26 04:27:50;;;;;;;55.10;24.60;;;;;;;-0.38;100.00;99552.41;5078689;28;20262;-69
2022/01/26 04:30:16;;;;;;;49.33;24.83;;;;;;;-0.48;100.00;99551.44;5078356;28;20457;-70
2022/01/26 04:32:42;;;;;;;45.80;23.47;;;;;;;-0.44;100.00;99543.22;5078484;28;20469;-69
2022/01/26 04:35:10;;;;;;;46.27;24.37;;;;;;;-0.49;100.00;99540.13;5078305;28;20446;-69
2022/01/26 04:37:53;;;;;;;41.43;23.70;;;;;;;-0.32;100.00;99541.47;5078005;28;20882;-69
2022/01/26 04:40:19;;;;;;;45.33;24.90;;;;;;;-0.45;100.00;99535.53;5078207;28;20227;-69
2022/01/26 04:42:51;;;;;;;43.30;24.57;;;;;;;-0.43;100.00;99544.06;5078265;28;20425;-69
2022/01/26 04:45:18;;;;;;;49.00;24.40;;;;;;;-0.44;100.00;99540.63;5078194;28;20224;-69
2022/01/26 04:47:44;;;;;;;46.37;24.70;;;;;;;-0.42;100.00;99533.53;5078122;28;20200;-69
2022/01/26 04:50:12;;;;;;;47.33;24.93;;;;;;;-0.36;100.00;99533.06;5077726;28;20907;-69
2022/01/26 04:52:40;;;;;;;54.63;25.63;;;;;;;-0.41;100.00;99532.56;5077705;28;20223;-70
2022/01/26 04:55:07;;;;;;;46.43;24.07;;;;;;;-0.40;100.00;99536.03;5078057;28;20192;-70
2022/01/26 04:57:34;;;;;;;50.53;25.03;;;;;;;-0.39;100.00;99525.47;5078050;28;20418;-69
2022/01/26 05:00:00;;;;;;;49.00;24.17;;;;;;;-0.46;100.00;99520.78;5077464;28;20857;-70
2022/01/26 05:02:26;;;;;;;55.47;25.03;;;;;;;-0.48;100.00;99526.16;5077685;28;20181;-69
2022/01/26 05:04:53;;;;;;;54.57;25.23;;;;;;;-0.41;100.00;99527.34;5077707;28;20212;-70
2022/01/26 05:07:19;;;;;;;49.47;24.87;;;;;;;-0.42;100.00;99525.69;5077732;28;20422;-70
2022/01/26 05:09:45;;;;;;;46.27;24.50;;;;;;;-0.39;100.00;99524.63;5077631;28;20215;-70
2022/01/26 05:12:14;;;;;;;48.27;22.63;;;;;;;-0.41;100.00;99529.09;5077706;28;20473;-70
2022/01/26 05:14:42;;;;;;;43.40;22.37;;;;;;;-0.39;100.00;99529.84;5077181;28;20216;-70
2022/01/26 05:17:09;;;;;;;45.80;24.00;;;;;;;-0.39;100.00;99535.06;5076905;28;20875;-70
2022/01/26 05:19:35;;;;;;;44.90;23.77;;;;;;;-0.43;100.00;99539.69;5077454;28;20475;-70
2022/01/26 05:22:01;;;;;;;51.70;24.17;;;;;;;-0.53;100.00;99549.16;5077036;28;20224;-69
2022/01/26 05:24:28;;;;;;;43.47;23.53;;;;;;;-0.46;100.00;99539.06;5077052;28;20288;-71
2022/01/26 05:26:54;;;;;;;51.23;24.57;;;;;;;-0.44;100.00;99539.81;5077288;28;20426;-69
2022/01/26 05:29:21;;;;;;;50.63;24.17;;;;;;;-0.51;100.00;99535.97;5077172;28;20424;-70
2022/01/26 05:31:47;;;;;;;45.57;24.27;;;;;;;-0.44;100.00;99532.78;5076720;28;20450;-70
2022/01/26 05:34:13;;;;;;;51.10;24.63;;;;;;;-0.46;100.00;99524.25;5076666;28;20440;-69
2022/01/26 05:36:40;;;;;;;48.33;24.37;;;;;;;-0.43;100.00;99520.56;5076929;28;20421;-70
2022/01/26 05:39:06;;;;;;;51.40;25.57;;;;;;;-0.41;100.00;99521.28;5076503;28;20515;-69
2022/01/26 05:41:33;;;;;;;50.97;24.13;;;;;;;-0.48;100.00;99523.53;5076583;28;20220;-70
2022/01/26 05:44:00;;;;;;;44.23;23.27;;;;;;;-0.48;100.00;99520.94;5076045;28;20674;-70
2022/01/26 05:46:33;;;;;;;49.87;23.30;;;;;;;-0.37;100.00;99518.34;5076321;28;20434;-70
2022/01/26 05:49:00;;;;;;;42.90;22.80;;;;;;;-0.42;100.00;99525.69;5076371;28;20848;-70
2022/01/26 05:51:27;;;;;;;46.87;23.70;;;;;;;-0.43;100.00;99528.41;5076190;28;20512;-70
2022/01/26 05:53:53;;;;;;;50.00;24.83;;;;;;;-0.51;100.00;99526.38;5076728;28;20211;-70
2022/01/26 05:56:19;;;;;;;55.00;25.47;;;;;;;-0.47;100.00;99532.19;5076238;28;20437;-70
2022/01/26 05:58:46;;;;;;;51.00;25.57;;;;;;;-0.45;100.00;99535.53;5076336;28;20197;-70
2022/01/26 06:01:13;;;;;;;54.07;25.73;;;;;;;-0.53;100.00;99548.31;5076126;28;20220;-70
2022/01/26 06:03:40;;;;;;;49.43;24.83;;;;;;;-0.43;100.00;99528.41;5076096;28;20470;-69
2022/01/26 06:06:06;;;;;;;49.53;25.93;;;;;;;-0.39;100.00;99530.69;5076090;28;20429;-70
2022/01/26 06:08:33;;;;;;;52.80;25.93;;;;;;;-0.40;100.00;99528.19;5076091;28;20440;-70
2022/01/26 06:11:01;;;;;;;55.83;25.63;;;;;;;-0.43;100.00;99521.41;5076200;28;20752;-69
2022/01/26 06:13:28;;;;;;;48.70;24.73;;;;;;;-0.39;100.00;99520.25;5075625;28;20872;-69
2022/01/26 06:15:54;;;;;;;47.40;24.80;;;;;;;-0.37;100.00;99522.72;5075619;28;20459;-70
2022/01/26 06:18:21;;;;;;;55.57;25.90;;;;;;;-0.52;100.00;99519.50;5075925;28;20622;-69
2022/01/26 06:20:48;;;;;;;55.23;26.53;;;;;;;-0.40;100.00;99520.34;5075494;28;20453;-70
2022/01/26 06:23:14;;;;;;;50.73;25.23;;;;;;;-0.38;100.00;99521.06;5075862;28;20425;-70
2022/01/26 06:25:41;;;;;;;57.00;26.43;;;;;;;-0.37;100.00;99517.47;5075529;28;20589;-69
2022/01/26 06:28:11;;;;;;;53.10;25.50;;;;;;;-0.30;100.00;99526.53;5075259;28;20862;-69
2022/01/26 06:30:38;;;;;;;52.57;25.37;;;;;;;-0.52;100.00;99516.88;5075767;28;20538;-69
2022/01/26 06:33:06;;;;;;;59.23;26.33;;;;;;;-0.37;100.00;99513.09;5075440;28;20464;-70
2022/01/26 06:35:34;;;;;;;57.47;27.20;;;;;;;-0.46;100.00;99519.03;5075386;28;20418;-69
2022/01/26 06:38:01;;;;;;;55.80;26.00;;;;;;;-0.39;100.00;99515.00;5075896;28;20418;-70
2022/01/26 06:40:27;;;;;;;56.13;26.00;;;;;;;-0.35;100.00;99513.81;5075634;28;20456;-69
2022/01/26 06:42:57;;;;;;;55.47;26.40;;;;;;;-0.36;100.00;99506.13;5075252;28;20843;-70
2022/01/26 06:45:26;;;;;;;57.07;26.70;;;;;;;-0.32;100.00;99510.13;5075544;28;20482;-69
2022/01/26 06:48:13;;;;;;;46.77;23.80;;;;;;;-0.28;100.00;99509.81;5075501;28;20425;-70
2022/01/26 06:50:41;;;;;;;50.63;25.43;;;;;;;-0.37;100.00;99512.25;5075413;28;20496;-69
2022/01/26 06:53:08;;;;;;;47.93;24.67;;;;;;;-0.32;100.00;99510.97;5075108;28;20658;-69
2022/01/26 06:55:34;;;;;;;42.40;23.93;;;;;;;-0.35;100.00;99521.66;5069009;28;20436;-70
2022/01/26 06:58:02;;;;;;;47.23;24.10;;;;;;;-0.28;100.00;99525.47;5065097;28;20421;-69
2022/01/26 07:00:28;;;;;;;44.83;24.13;;;;;;;-0.39;100.00;99532.47;5064603;28;20520;-69
2022/01/26 07:02:55;;;;;;;46.40;25.47;;;;;;;-0.37;100.00;99530.56;5060853;28;20189;-70
2022/01/26 07:05:22;;;;;;;49.07;23.87;;;;;;;-0.33;100.00;99529.38;5055259;28;20623;-70
2022/01/26 07:07:49;;;;;;;49.63;25.43;;;;;;;-0.31;100.00;99523.09;5055429;28;20185;-69
2022/01/26 07:10:16;;;;;;;44.93;24.73;;;;;;;-0.24;100.00;99532.16;5055533;28;20454;-70
2022/01/26 07:12:43;;;;;;;46.27;24.10;;;;;;;-0.41;100.00;99529.09;5055025;28;20463;-69
2022/01/26 07:23:30;;;;;;;47.17;23.13;;;;;;;-0.43;100.00;99541.47;5054883;28;20911;-70
2022/01/26 07:25:57;;;;;;;45.03;24.10;;;;;;;-0.44;100.00;99531.97;5074909;28;20445;-70
2022/01/26 07:28:23;;;;;;;46.47;24.87;;;;;;;-0.38;100.00;99545.41;5075256;28;20417;-70
2022/01/26 07:30:50;;;;;;;43.83;23.83;;;;;;;-0.42;100.00;99538.75;5074647;28;20456;-69
2022/01/26 07:33:18;;;;;;;44.83;23.90;;;;;;;-0.40;100.00;99534.22;5074815;28;20533;-70
2022/01/26 07:35:44;;;;;;;47.50;25.63;;;;;;;-0.26;100.00;99546.28;5074935;28;20868;-69
2022/01/26 07:38:10;;;;;;;44.47;23.27;;;;;;;-0.26;100.00;99549.69;5075045;28;20422;-70
2022/01/26 07:40:39;;;;;;;45.23;23.70;;;;;;;-0.20;100.00;99556.25;5078930;28;20227;-69
2022/01/26 07:43:05;;;;;;;47.97;24.10;;;;;;;-0.22;100.00;99556.38;5078925;28;20212;-69
2022/01/26 07:45:32;;;;;;;49.17;25.43;;;;;;;-0.26;100.00;99570.59;5078767;28;20185;-69
2022/01/26 07:47:58;;;;;;;45.03;24.17;;;;;;;-0.19;100.00;99566.59;5078994;28;20728;-69
2022/01/26 07:50:25;;;;;;;43.77;23.80;;;;;;;-0.20;100.00;99562.31;5078959;28;20457;-70
2022/01/26 07:52:52;;;;;;;39.13;22.30;;;;;;;-0.23;100.00;99569.53;5078728;28;20488;-70
2022/01/26 07:55:21;;;;;;;40.83;22.43;;;;;;;-0.18;100.00;99575.28;5078812;28;20204;-69
2022/01/26 07:57:49;;;;;;;43.60;24.53;;;;;;;-0.17;100.00;99566.50;5078624;28;20196;-69
2022/01/26 08:00:17;;;;;;;47.53;24.63;;;;;;;-0.27;100.00;99571.56;5078467;28;20678;-70
2022/01/26 08:02:45;;;;;;;46.37;23.60;;;;;;;-0.20;100.00;99577.16;5078654;28;20185;-70
2022/01/26 08:05:13;;;;;;;38.03;21.23;;;;;;;0.08;100.00;99575.94;5078622;28;20215;-70
2022/01/26 08:07:39;;;;;;;40.97;22.93;;;;;;;-0.06;100.00;99580.41;5078568;28;20207;-69
2022/01/26 08:10:08;;;;;;;46.23;23.33;;;;;;;-0.17;100.00;99593.44;5078506;28;20522;-70
2022/01/26 08:12:35;;;;;;;39.37;21.83;;;;;;;-0.20;100.00;99600.69;5078097;28;20189;-69
2022/01/26 08:15:01;;;;;;;44.00;23.47;;;;;;;-0.32;100.00;99602.44;5078362;28;20189;-70
2022/01/26 08:17:28;;;;;;;48.73;23.87;;;;;;;-0.19;100.00;99597.13;5078508;28;20429;-70
2022/01/26 08:19:55;;;;;;;41.87;23.17;;;;;;;-0.33;100.00;99589.47;5078190;28;20436;-69
2022/01/26 08:22:24;;;;;;;43.00;22.60;;;;;;;-0.27;100.00;99579.41;5077679;28;20441;-69
2022/01/26 08:24:51;;;;;;;44.83;22.47;;;;;;;-0.28;100.00;99587.34;5078402;28;20719;-70
2022/01/26 08:27:20;;;;;;;45.67;23.07;;;;;;;-0.29;100.00;99593.53;5078340;28;20189;-70
2022/01/26 08:29:49;;;;;;;41.17;23.17;;;;;;;-0.21;100.00;99605.06;5078076;28;20285;-69
2022/01/26 08:32:16;;;;;;;43.07;22.93;;;;;;;-0.28;100.00;99611.72;5078005;28;20580;-70
2022/01/26 08:34:43;;;;;;;46.33;23.93;;;;;;;-0.26;100.00;99612.41;5078244;28;20220;-69
2022/01/26 08:37:09;;;;;;;40.17;22.87;;;;;;;-0.10;100.00;99604.28;5078210;28;20197;-70
2022/01/26 08:39:36;;;;;;;42.47;22.73;;;;;;;-0.17;100.00;99611.72;5078031;28;20216;-70
2022/01/26 08:42:05;;;;;;;47.37;24.13;;;;;;;-0.18;100.00;99612.69;5078061;28;20227;-70
2022/01/26 08:44:32;;;;;;;45.63;23.93;;;;;;;-0.13;100.00;99618.41;5078042;28;20250;-70
2022/01/26 08:46:58;;;;;;;41.60;22.90;;;;;;;-0.10;100.00;99605.13;5077965;28;20433;-70
2022/01/26 08:49:27;;;;;;;41.20;23.47;;;;;;;-0.11;100.00;99600.84;5077810;28;20220;-69
2022/01/26 08:51:54;;;;;;;44.13;22.93;;;;;;;-0.21;100.00;99607.69;5077556;28;20232;-69
2022/01/26 08:54:22;;;;;;;46.13;23.87;;;;;;;-0.20;100.00;99618.97;5077804;28;20327;-70
2022/01/26 08:56:52;;;;;;;44.90;23.63;;;;;;;-0.13;100.00;99614.97;5077868;28;20192;-70
2022/01/26 08:59:19;;;;;;;42.10;24.00;;;;;;;-0.06;100.00;99611.78;5077344;28;20607;-69
2022/01/26 09:01:46;;;;;;;48.80;24.50;;;;;;;-0.09;100.00;99609.38;5077357;28;20225;-69
2022/01/26 09:04:13;;;;;;;43.60;24.07;;;;;;;-0.11;100.00;99600.84;5077494;28;20196;-69
2022/01/26 09:06:50;;;;;;;45.93;24.77;;;;;;;-0.01;100.00;99608.81;5077658;28;20189;-70
2022/01/26 09:09:19;;;;;;;45.70;24.20;;;;;;;0.01;100.00;99614.78;5077473;28;20188;-69
2022/01/26 09:11:47;;;;;;;44.87;24.60;;;;;;;0.08;100.00;99614.19;5077422;28;20220;-69
2022/01/26 09:14:18;;;;;;;43.13;23.00;;;;;;;0.08;100.00;99618.56;5077056;28;20295;-69
2022/01/26 09:16:46;;;;;;;43.37;24.87;;;;;;;0.08;99.94;99623.81;5077253;28;20193;-70
2022/01/26 09:19:24;;;;;;;42.07;23.57;;;;;;;0.08;99.63;99626.41;5077245;28;20281;-70
2022/01/26 09:21:50;;;;;;;40.47;23.13;;;;;;;0.09;99.99;99638.53;5077344;28;20224;-69
2022/01/26 09:24:17;;;;;;;41.93;23.60;;;;;;;0.16;99.82;99642.38;5077214;28;20201;-70
2022/01/26 09:26:43;;;;;;;41.17;23.63;;;;;;;0.10;99.16;99620.13;5077079;28;20192;-69
2022/01/26 09:29:09;;;;;;;41.40;23.47;;;;;;;0.06;99.22;99608.22;5077108;28;20193;-70
2022/01/26 09:31:36;;;;;;;37.83;22.27;;;;;;;0.09;99.82;99630.69;5077036;28;20217;-70
2022/01/26 09:34:03;;;;;;;41.07;23.90;;;;;;;0.15;99.53;99631.06;5077086;28;20246;-69
2022/01/26 09:36:30;;;;;;;42.47;23.27;;;;;;;0.21;99.59;99631.59;5077059;28;20192;-70
2022/01/26 09:38:57;;;;;;;44.80;24.07;;;;;;;0.08;99.52;99621.19;5076957;28;20185;-69
2022/01/26 09:41:25;;;;;;;45.87;25.47;;;;;;;-0.22;100.00;99624.31;5076857;28;20228;-69
2022/01/26 09:43:51;;;;;;;51.17;25.63;;;;;;;0.00;100.00;99611.31;5076637;28;20267;-70
2022/01/26 09:46:17;;;;;;;51.10;25.07;;;;;;;0.06;100.00;99605.63;5076402;28;20193;-69
2022/01/26 09:48:44;;;;;;;46.83;25.57;;;;;;;0.12;100.00;99604.31;5076506;28;20266;-69
2022/01/26 09:51:15;;;;;;;42.33;24.03;;;;;;;0.11;100.00;99592.22;5076698;28;20221;-69
2022/01/26 09:53:42;;;;;;;48.30;24.00;;;;;;;0.11;100.00;99586.97;5076749;28;20240;-70
2022/01/26 09:56:08;;;;;;;49.00;24.90;;;;;;;0.03;100.00;99583.28;5076671;28;20212;-70
2022/01/26 09:58:36;;;;;;;47.30;24.93;;;;;;;0.12;100.00;99591.25;5076472;28;20208;-69
2022/01/26 10:01:04;;;;;;;45.53;24.13;;;;;;;0.21;100.00;99594.97;5076158;28;20243;-70
2022/01/26 10:03:33;;;;;;;42.43;23.23;;;;;;;0.18;100.00;99594.22;5076524;28;20192;-70
2022/01/26 10:06:01;;;;;;;45.47;23.57;;;;;;;0.22;100.00;99587.81;5076588;28;20212;-70
2022/01/26 10:08:58;;;;;;;45.13;23.47;;;;;;;0.24;99.95;99582.47;5076313;28;20188;-70
2022/01/26 10:19:58;;;;;;;45.10;24.67;;;;;;;0.26;99.10;99570.09;5076297;28;20196;-69
2022/01/26 10:22:30;;;;;;;42.37;23.27;;;;;;;0.44;99.40;99562.66;5076403;28;20200;-70
2022/01/26 10:25:06;;;;;;;42.50;22.57;;;;;;;0.52;98.43;99557.63;5076327;28;20196;-69
2022/01/26 10:27:45;;;;;;;41.50;22.97;;;;;;;0.47;97.57;99557.16;5076246;28;20196;-69
2022/01/26 10:30:14;;;;;;;42.10;21.90;;;;;;;0.55;97.91;99568.69;5076204;28;20216;-69
2022/01/26 10:32:43;;;;;;;41.33;22.70;;;;;;;0.56;97.77;99570.34;5075831;28;20211;-69
2022/01/26 10:35:10;;;;;;;35.90;21.77;;;;;;;0.73;96.19;99567.25;5076025;28;20215;-69
2022/01/26 10:37:40;;;;;;;36.60;21.03;;;;;;;0.64;96.62;99554.91;5075711;28;20581;-69
2022/01/26 10:40:10;;;;;;;33.97;20.53;;;;;;;0.69;96.59;99552.75;5075671;28;20236;-69
2022/01/26 10:42:37;;;;;;;41.53;22.80;;;;;;;0.74;96.10;99555.00;5076001;28;20279;-70
2022/01/26 10:45:10;;;;;;;36.37;21.57;;;;;;;0.71;95.26;99571.78;5075971;28;20200;-69
2022/01/26 10:47:39;;;;;;;33.80;21.03;;;;;;;0.62;94.76;99576.91;5075836;28;20185;-70
2022/01/26 10:50:48;;;;;;;39.50;21.70;;;;;;;0.57;95.43;99576.41;5075674;28;20564;-70
2022/01/26 10:53:18;;;;;;;35.60;21.73;;;;;;;0.63;95.02;99578.56;5058044;28;20587;-69
2022/01/26 10:55:45;;;;;;;36.73;21.90;;;;;;;0.76;94.98;99582.72;5075495;28;20184;-70
2022/01/26 10:58:16;;;;;;;35.17;21.57;;;;;;;0.66;94.48;99591.41;5075598;28;20199;-69
2022/01/26 11:00:43;;;;;;;40.67;22.60;;;;;;;0.71;94.76;99599.75;5075471;28;20231;-69
2022/01/26 11:03:10;;;;;;;35.43;20.67;;;;;;;0.76;94.60;99605.44;5075682;28;20192;-69
2022/01/26 11:05:37;;;;;;;33.80;19.33;;;;;;;0.57;94.58;99600.81;5075827;28;20196;-70
2022/01/26 11:08:05;;;;;;;36.37;21.73;;;;;;;0.84;92.83;99603.88;5075746;28;20192;-69
2022/01/26 11:10:37;;;;;;;40.63;21.53;;;;;;;0.95;92.87;99606.47;5075754;28;20228;-70
2022/01/26 11:13:05;;;;;;;39.03;22.63;;;;;;;0.56;95.42;99603.53;5075773;28;20234;-70
2022/01/26 11:15:32;;;;;;;39.20;22.63;;;;;;;0.60;95.99;99608.44;5079722;28;20222;-70
2022/01/26 11:18:10;;;;;;;44.63;23.07;;;;;;;0.58;96.79;99605.06;5079712;28;20188;-70
2022/01/26 11:20:49;;;;;;;45.03;22.57;;;;;;;0.82;95.52;99611.03;5079624;28;20316;-69
2022/01/26 11:23:19;;;;;;;42.90;24.27;;;;;;;0.64;96.41;99622.09;5079566;28;20276;-70
2022/01/26 11:25:47;;;;;;;44.97;23.47;;;;;;;0.18;99.47;99609.94;5079660;28;20189;-70
2022/01/26 11:28:25;;;;;;;46.37;23.17;;;;;;;0.32;99.34;99598.44;5079251;28;20193;-69
2022/01/26 11:30:55;;;;;;;37.80;19.47;;;;;;;0.28;99.41;99593.53;5079029;28;20224;-70
2022/01/26 11:33:25;;;;;;;48.43;24.13;;;;;;;-0.13;100.00;99594.88;5079369;28;20489;-69
2022/01/26 11:35:59;;;;;;;46.80;23.87;;;;;;;-0.09;100.00;99604.16;5079258;28;20192;-70
2022/01/26 11:42:11;;;;;;;49.60;23.93;;;;;;;0.06;100.00;99595.16;5079079;28;20428;-69
2022/01/26 11:42:27;;;;;;;50.73;24.63;;;;;;;-0.07;100.00;99581.38;5078668;28;20453;-70
2022/01/26 11:45:08;;;;;;;41.17;21.13;;;;;;;0.15;100.00;99591.84;5078755;28;20451;-70
2022/01/26 11:47:38;;;;;;;47.63;22.07;;;;;;;0.18;100.00;99599.47;5079067;28;20460;-70
2022/01/26 11:50:16;;;;;;;38.47;21.33;;;;;;;0.06;100.00;99605.63;5078841;28;20429;-70
2022/01/26 11:52:47;;;;;;;45.50;22.80;;;;;;;-0.16;100.00;99594.28;5078520;28;20917;-70
2022/01/26 11:55:37;;;;;;;46.87;24.60;;;;;;;0.02;100.00;99577.22;5078398;28;20902;-70
2022/01/26 11:58:14;;;;;;;37.80;20.33;;;;;;;0.22;100.00;99588.78;5078789;28;20224;-70
2022/01/26 12:00:51;;;;;;;44.63;23.53;;;;;;;0.08;100.00;99594.22;5078831;28;20460;-69
2022/01/26 12:03:27;;;;;;;44.57;22.67;;;;;;;0.17;100.00;99589.97;5078895;28;20495;-70
2022/01/26 12:05:56;;;;;;;51.57;23.27;;;;;;;0.05;100.00;99582.22;5078370;28;20877;-70
2022/01/26 12:08:31;;;;;;;42.43;22.17;;;;;;;0.15;100.00;99581.38;5078721;28;20445;-71
2022/01/26 12:10:57;;;;;;;42.97;21.77;;;;;;;0.37;100.00;99577.13;5078396;28;20658;-70
2022/01/26 12:13:30;;;;;;;39.40;22.47;;;;;;;0.18;100.00;99575.94;5078601;28;20189;-70
2022/01/26 12:16:04;;;;;;;42.43;21.57;;;;;;;0.06;100.00;99576.84;5078357;28;20189;-70
2022/01/26 12:18:35;;;;;;;42.43;21.90;;;;;;;0.26;100.00;99585.00;5078483;28;20220;-70
2022/01/26 12:33:00;;;;;;;35.03;21.30;;;;;;;0.09;100.00;99570.56;5077662;28;20172;-70
2022/01/26 12:35:53;;;;;;;34.73;19.93;;;;;;;0.18;99.89;99583.78;5077772;28;20912;-70
2022/01/26 12:38:29;;;;;;;34.23;19.00;;;;;;;0.45;98.24;99578.19;5077842;28;20426;-70
2022/01/26 12:43:44;;;;;;;35.07;20.17;;;;;;;0.23;98.51;99571.19;5077183;28;20547;-70
2022/01/26 12:46:14;;;;;;;40.77;21.20;;;;;;;0.27;99.52;99566.53;5077450;28;20432;-70
2022/01/26 12:48:42;;;;;;;36.00;18.77;;;;;;;0.44;98.09;99583.56;5077596;28;20428;-70
2022/01/26 12:51:10;;;;;;;34.03;19.77;;;;;;;0.36;98.13;99572.84;5077677;28;20231;-71
2022/01/26 12:53:38;;;;;;;30.87;19.30;;;;;;;0.31;98.65;99588.06;5077718;28;20323;-70
2022/01/26 12:56:11;;;;;;;31.53;19.30;;;;;;;0.27;98.28;99584.84;5077531;28;20208;-70